createdAt,value
2023-03-15T00:01:33.317Z,5.66
2023-03-15T00:04:26.235Z,5.60
2023-03-15T00:07:16.512Z,5.68
2023-03-15T00:10:03.589Z,5.58
2023-03-15T00:12:59.782Z,5.45
2023-03-15T00:15:49.984Z,5.57
2023-03-15T00:18:34.671Z,5.62
2023-03-15T00:21:23.046Z,5.69
2023-03-15T00:24:12.835Z,5.71
2023-03-15T00:27:04.496Z,5.65
2023-03-15T00:29:54.387Z,5.72
2023-03-15T00:32:46.420Z,5.77
2023-03-15T00:35:38.758Z,5.80
2023-03-15T00:38:28.139Z,5.99
2023-03-15T00:41:18.519Z,6.06
2023-03-15T00:44:07.560Z,5.97
2023-03-15T00:47:00.101Z,6.03
2023-03-15T00:49:45.496Z,6.13
2023-03-15T00:52:41.416Z,6.10
2023-03-15T00:55:32.109Z,6.15
2023-03-15T00:58:24.545Z,6.02
2023-03-15T01:01:15.014Z,6.06
2023-03-15T01:04:09.064Z,6.08
2023-03-15T01:06:57.601Z,6.13
2023-03-15T01:09:53.724Z,6.03
2023-03-15T01:12:44.404Z,6.16
2023-03-15T01:15:37.009Z,6.02
2023-03-15T01:18:24.405Z,6.04
2023-03-15T01:21:18.707Z,6.07
2023-03-15T01:24:09.273Z,6.13
2023-03-15T01:26:56.135Z,6.24
2023-03-15T01:29:47.076Z,6.32
2023-03-15T01:32:39.887Z,6.29
2023-03-15T01:35:28.035Z,6.35
2023-03-15T01:38:22.403Z,6.19
2023-03-15T01:41:22.042Z,6.22
2023-03-15T01:44:07.280Z,6.23
2023-03-15T01:46:57.166Z,6.23
2023-03-15T01:49:40.704Z,6.19
2023-03-15T01:52:37.609Z,6.24
2023-03-15T01:55:32.691Z,6.17
2023-03-15T01:58:22.707Z,6.13
2023-03-15T02:01:12.849Z,6.13
2023-03-15T02:04:10.779Z,6.12
2023-03-15T02:07:02.649Z,6.19
2023-03-15T02:09:54.637Z,6.15
2023-03-15T02:12:48.776Z,6.13
2023-03-15T02:15:39.197Z,6.03
2023-03-15T02:18:29.785Z,6.02
2023-03-15T02:21:33.376Z,5.87
2023-03-15T02:24:36.741Z,5.65
2023-03-15T02:27:34.656Z,5.60
2023-03-15T02:30:29.281Z,5.51
2023-03-15T02:33:27.173Z,5.47
2023-03-15T02:36:23.626Z,5.48
2023-03-15T02:39:19.210Z,5.48
2023-03-15T02:42:13.145Z,5.41
2023-03-15T02:45:01.655Z,5.35
2023-03-15T02:47:52.926Z,5.36
2023-03-15T02:50:40.730Z,5.27
2023-03-15T02:53:28.167Z,5.22
2023-03-15T02:56:22.659Z,5.21
2023-03-15T02:59:17.420Z,5.15
2023-03-15T03:02:03.684Z,4.83
2023-03-15T03:04:53.094Z,4.71
2023-03-15T03:07:37.987Z,4.68
2023-03-15T03:10:27.300Z,4.60
2023-03-15T03:13:17.024Z,4.54
2023-03-15T03:16:06.392Z,4.36
2023-03-15T03:18:58.128Z,4.47
2023-03-15T03:21:44.888Z,4.52
2023-03-15T03:24:33.353Z,4.55
2023-03-15T03:27:24.139Z,4.45
2023-03-15T03:30:15.054Z,4.56
2023-03-15T03:33:11.411Z,4.56
2023-03-15T03:36:04.461Z,4.65
2023-03-15T03:38:50.259Z,4.72
2023-03-15T03:41:40.011Z,4.78
2023-03-15T03:44:32.335Z,4.77
2023-03-15T03:47:21.997Z,4.93
2023-03-15T03:50:14.565Z,4.92
2023-03-15T03:53:04.910Z,4.97
2023-03-15T03:55:58.472Z,5.04
2023-03-15T03:58:50.118Z,5.05
2023-03-15T04:01:42.142Z,5.10
2023-03-15T04:04:32.328Z,5.16
2023-03-15T04:07:22.223Z,5.22
2023-03-15T04:10:09.803Z,5.25
2023-03-15T04:12:54.094Z,5.31
2023-03-15T04:15:43.136Z,5.22
2023-03-15T04:18:27.820Z,5.20
2023-03-15T04:21:12.744Z,4.98
2023-03-15T04:24:01.960Z,5.02
2023-03-15T04:26:49.207Z,5.04
2023-03-15T04:29:33.358Z,5.07
2023-03-15T04:32:20.235Z,5.06
2023-03-15T04:35:04.755Z,5.13
2023-03-15T04:37:52.157Z,5.18
2023-03-15T04:40:37.877Z,5.07
2023-03-15T04:43:25.566Z,4.85
2023-03-15T04:46:15.398Z,5.00
2023-03-15T04:49:07.721Z,5.02
2023-03-15T04:51:55.081Z,5.13
2023-03-15T04:54:48.816Z,5.16
2023-03-15T04:57:38.158Z,5.24
2023-03-15T05:00:28.500Z,5.35
2023-03-15T05:03:14.014Z,5.37
2023-03-15T05:06:01.559Z,5.52
2023-03-15T05:08:50.174Z,5.57
2023-03-15T05:11:37.924Z,5.61
2023-03-15T05:14:30.913Z,5.40
2023-03-15T05:17:20.496Z,5.51
2023-03-15T05:20:12.675Z,5.72
2023-03-15T05:23:03.746Z,5.89
2023-03-15T05:25:59.832Z,5.98
2023-03-15T05:28:54.249Z,6.17
2023-03-15T05:31:44.366Z,6.13
2023-03-15T05:34:38.549Z,6.18
2023-03-15T05:37:28.010Z,6.22
2023-03-15T05:40:18.192Z,6.37
2023-03-15T05:43:06.657Z,6.45
2023-03-15T05:45:51.585Z,6.60
2023-03-15T05:48:45.152Z,6.68
2023-03-15T05:51:47.693Z,6.78
2023-03-15T05:54:38.904Z,7.00
2023-03-15T05:57:27.917Z,7.20
2023-03-15T06:00:19.781Z,7.37
2023-03-15T06:03:13.290Z,7.28
2023-03-15T06:06:13.032Z,7.62
2023-03-15T06:09:04.996Z,7.94
2023-03-15T06:11:56.948Z,9.33
2023-03-15T06:14:43.368Z,9.90
2023-03-15T06:17:34.909Z,9.55
2023-03-15T06:20:26.592Z,10.28
2023-03-15T06:23:16.660Z,13.88
2023-03-15T06:26:06.821Z,16.25
2023-03-15T06:28:56.862Z,17.89
2023-03-15T06:31:48.262Z,15.93
2023-03-15T06:34:41.185Z,13.87
2023-03-15T06:37:35.430Z,12.62
2023-03-15T06:40:26.674Z,13.94
2023-03-15T06:43:23.419Z,13.73
2023-03-15T06:46:17.968Z,13.71
2023-03-15T06:49:10.893Z,13.52
2023-03-15T06:52:05.763Z,15.78
2023-03-15T06:54:51.922Z,15.56
2023-03-15T06:57:37.659Z,13.91
2023-03-15T07:00:26.492Z,16.81
2023-03-15T07:03:13.256Z,19.45
2023-03-15T07:05:59.707Z,20.44
2023-03-15T07:08:46.099Z,21.06
2023-03-15T07:11:33.416Z,23.56
2023-03-15T07:14:24.135Z,22.89
2023-03-15T07:17:17.695Z,22.41
2023-03-15T07:20:02.027Z,21.89
2023-03-15T07:22:50.156Z,24.36
2023-03-15T07:25:48.248Z,26.14
2023-03-15T07:28:36.140Z,29.49
2023-03-15T07:31:19.837Z,27.34
2023-03-15T07:34:05.036Z,26.38
2023-03-15T07:37:00.334Z,27.04
2023-03-15T07:39:46.979Z,25.41
2023-03-15T07:42:36.263Z,24.00
2023-03-15T07:45:31.108Z,23.06
2023-03-15T07:48:24.589Z,23.51
2023-03-15T07:51:18.857Z,24.41
2023-03-15T07:54:13.466Z,27.51
2023-03-15T07:57:05.301Z,30.49
2023-03-15T07:59:56.991Z,31.74
2023-03-15T08:02:49.288Z,30.67
2023-03-15T08:05:40.444Z,28.79
2023-03-15T08:08:28.305Z,29.32
2023-03-15T08:11:18.086Z,33.41
2023-03-15T08:14:12.044Z,32.35
2023-03-15T08:17:01.931Z,28.83
2023-03-15T08:19:52.751Z,27.99
2023-03-15T08:22:40.932Z,29.87
2023-03-15T08:25:33.807Z,32.96
2023-03-15T08:28:28.407Z,31.99
2023-03-15T08:31:19.612Z,30.18
2023-03-15T08:34:07.566Z,27.22
2023-03-15T08:36:57.765Z,27.52
2023-03-15T08:39:52.941Z,31.56
2023-03-15T08:42:48.791Z,31.09
2023-03-15T08:45:59.727Z,33.39
2023-03-15T08:48:51.414Z,33.57
2023-03-15T08:51:45.099Z,30.75
2023-03-15T08:54:37.186Z,28.08
2023-03-15T08:57:30.182Z,24.92
2023-03-15T09:00:23.515Z,23.77
2023-03-15T09:03:16.053Z,25.51
2023-03-15T09:06:05.074Z,29.75
2023-03-15T09:08:59.256Z,29.64
2023-03-15T09:11:52.753Z,26.05
2023-03-15T09:14:38.493Z,24.78
2023-03-15T09:17:27.564Z,21.91
2023-03-15T09:20:22.735Z,21.01
2023-03-15T09:23:14.155Z,20.55
2023-03-15T09:26:06.321Z,19.48
2023-03-15T09:28:54.540Z,18.47
2023-03-15T09:31:46.073Z,18.27
2023-03-15T09:34:43.406Z,18.37
2023-03-15T09:37:35.230Z,19.48
2023-03-15T09:40:27.703Z,21.09
2023-03-15T09:43:46.653Z,21.98
2023-03-15T09:46:39.622Z,20.85
2023-03-15T09:49:46.454Z,19.22
2023-03-15T09:52:46.083Z,18.96
2023-03-15T09:55:37.267Z,20.30
2023-03-15T09:58:33.838Z,19.80
2023-03-15T10:01:26.641Z,19.24
2023-03-15T10:04:28.992Z,18.50
2023-03-15T10:07:23.000Z,18.06
2023-03-15T10:10:20.137Z,17.40
2023-03-15T10:13:26.900Z,16.61
2023-03-15T10:16:31.136Z,16.79
2023-03-15T10:19:30.072Z,16.92
2023-03-15T10:22:31.465Z,18.69
2023-03-15T10:25:25.646Z,18.48
2023-03-15T10:28:20.152Z,17.78
2023-03-15T10:31:21.594Z,17.31
2023-03-15T10:34:14.299Z,17.74
2023-03-15T10:37:06.174Z,17.27
2023-03-15T10:40:00.685Z,16.44
2023-03-15T10:42:50.709Z,16.01
2023-03-15T10:45:39.294Z,15.92
2023-03-15T10:48:25.025Z,15.92
2023-03-15T10:51:17.036Z,15.98
2023-03-15T10:54:03.838Z,16.42
2023-03-15T10:57:03.312Z,17.03
2023-03-15T11:00:07.256Z,16.77
2023-03-15T11:02:57.807Z,15.97
2023-03-15T11:05:51.999Z,15.44
2023-03-15T11:08:48.733Z,14.93
2023-03-15T11:11:59.259Z,14.76
2023-03-15T11:14:49.504Z,14.80
2023-03-15T11:17:48.268Z,14.96
2023-03-15T11:20:46.086Z,15.22
2023-03-15T11:23:36.535Z,15.67
2023-03-15T11:26:32.650Z,16.17
2023-03-15T11:29:26.145Z,16.36
2023-03-15T11:32:19.700Z,15.90
2023-03-15T11:35:10.502Z,16.52
2023-03-15T11:38:14.517Z,16.98
2023-03-15T11:41:03.303Z,16.97
2023-03-15T11:44:09.066Z,16.68
2023-03-15T11:47:07.288Z,16.36
2023-03-15T11:50:01.214Z,16.52
2023-03-15T11:52:52.292Z,16.37
2023-03-15T11:55:44.121Z,16.42
2023-03-15T11:58:41.005Z,16.22
2023-03-15T12:01:34.752Z,15.53
2023-03-15T12:04:48.094Z,15.00
2023-03-15T12:08:22.973Z,15.28
2023-03-15T12:11:15.975Z,15.32
2023-03-15T12:14:13.687Z,15.02
2023-03-15T12:17:31.927Z,14.49
2023-03-15T12:20:37.926Z,14.29
2023-03-15T12:23:34.402Z,14.41
2023-03-15T12:26:31.009Z,14.20
2023-03-15T12:29:27.903Z,14.13
2023-03-15T12:32:22.157Z,13.85
2023-03-15T12:35:21.413Z,14.01
2023-03-15T12:38:17.020Z,14.02
2023-03-15T12:41:12.384Z,14.16
2023-03-15T12:44:29.614Z,14.26
2023-03-15T12:47:22.221Z,14.06
2023-03-15T12:50:40.474Z,13.95
2023-03-15T12:53:46.354Z,13.62
2023-03-15T12:56:48.621Z,13.35
2023-03-15T12:59:45.363Z,13.07
2023-03-15T13:02:44.228Z,13.32
2023-03-15T13:05:39.333Z,13.41
2023-03-15T13:08:37.890Z,13.37
2023-03-15T13:11:34.289Z,13.47
2023-03-15T13:14:46.572Z,13.57
2023-03-15T13:17:47.087Z,13.70
2023-03-15T13:20:50.274Z,13.68
2023-03-15T13:23:43.730Z,13.77
2023-03-15T13:26:53.820Z,13.51
2023-03-15T13:29:46.721Z,13.23
2023-03-15T13:32:37.438Z,13.31
2023-03-15T13:35:27.457Z,13.50
2023-03-15T13:38:30.113Z,13.65
2023-03-15T13:41:31.464Z,14.02
2023-03-15T13:44:27.405Z,13.97
2023-03-15T13:47:24.418Z,14.17
2023-03-15T13:50:18.178Z,14.72
2023-03-15T13:53:02.764Z,14.98
2023-03-15T13:55:57.823Z,15.25
2023-03-15T13:58:52.795Z,15.02
2023-03-15T14:01:45.883Z,14.84
2023-03-15T14:04:42.835Z,14.77
2023-03-15T14:07:34.427Z,14.44
2023-03-15T14:10:38.578Z,14.28
2023-03-15T14:13:29.600Z,14.49
2023-03-15T14:16:53.244Z,14.40
2023-03-15T14:19:59.396Z,14.45
2023-03-15T14:22:51.271Z,14.10
2023-03-15T14:25:44.466Z,13.88
2023-03-15T14:28:35.100Z,13.97
2023-03-15T14:31:29.970Z,14.13
2023-03-15T14:34:29.466Z,13.51
2023-03-15T14:37:36.413Z,13.60
2023-03-15T14:40:22.706Z,13.67
2023-03-15T14:43:07.794Z,13.83
2023-03-15T14:45:51.665Z,13.83
2023-03-15T14:48:37.161Z,13.78
2023-03-15T14:51:23.442Z,13.48
2023-03-15T14:54:09.050Z,13.28
2023-03-15T14:56:53.101Z,13.34
2023-03-15T14:59:37.054Z,13.15
2023-03-15T15:02:21.155Z,13.22
2023-03-15T15:05:19.858Z,13.21
2023-03-15T15:08:07.343Z,13.21
2023-03-15T15:10:53.684Z,13.04
2023-03-15T15:13:38.761Z,12.79
2023-03-15T15:16:22.622Z,12.79
2023-03-15T15:19:06.795Z,12.71
2023-03-15T15:21:52.709Z,12.63
2023-03-15T15:24:37.248Z,12.41
2023-03-15T15:27:21.375Z,12.26
2023-03-15T15:30:06.048Z,12.04
2023-03-15T15:32:50.169Z,11.88
2023-03-15T15:35:35.409Z,11.95
2023-03-15T15:38:21.122Z,11.69
2023-03-15T15:41:05.292Z,11.75
2023-03-15T15:43:48.949Z,11.74
2023-03-15T15:46:32.893Z,11.51
2023-03-15T15:49:17.298Z,11.58
2023-03-15T15:52:01.276Z,11.42
2023-03-15T15:54:48.698Z,11.51
2023-03-15T15:57:33.453Z,11.49
2023-03-15T16:00:20.380Z,11.35
2023-03-15T16:03:04.723Z,11.39
2023-03-15T16:05:48.529Z,11.25
2023-03-15T16:08:35.911Z,11.21
2023-03-15T16:11:22.894Z,11.19
2023-03-15T16:14:06.711Z,11.09
2023-03-15T16:16:50.650Z,10.86
2023-03-15T16:19:34.731Z,10.91
2023-03-15T16:22:20.217Z,10.77
2023-03-15T16:25:11.737Z,10.81
2023-03-15T16:27:58.341Z,10.87
2023-03-15T16:30:44.730Z,10.81
2023-03-15T16:33:29.838Z,10.84
2023-03-15T16:36:21.595Z,10.75
2023-03-15T16:39:06.036Z,10.67
2023-03-15T16:41:52.423Z,10.61
2023-03-15T16:44:38.168Z,10.47
2023-03-15T16:47:23.068Z,10.37
2023-03-15T16:50:07.474Z,10.31
2023-03-15T16:52:54.711Z,10.14
2023-03-15T16:55:39.681Z,10.02
2023-03-15T16:58:23.493Z,9.98
2023-03-15T17:01:11.303Z,9.78
2023-03-15T17:03:56.029Z,9.74
2023-03-15T17:06:41.158Z,9.49
2023-03-15T17:09:25.978Z,9.53
2023-03-15T17:12:16.201Z,9.43
2023-03-15T17:15:01.605Z,9.47
2023-03-15T17:17:48.015Z,9.57
2023-03-15T17:20:32.812Z,9.52
2023-03-15T17:23:21.538Z,9.48
2023-03-15T17:26:06.342Z,9.44
2023-03-15T17:28:50.756Z,9.36
2023-03-15T17:31:36.322Z,9.41
2023-03-15T17:34:25.192Z,9.34
2023-03-15T17:37:10.814Z,9.40
2023-03-15T17:39:54.933Z,9.39
2023-03-15T17:42:38.625Z,9.13
2023-03-15T17:45:26.984Z,9.26
2023-03-15T17:48:11.328Z,9.16
2023-03-15T17:50:56.829Z,9.00
2023-03-15T17:53:40.548Z,9.14
2023-03-15T17:56:24.509Z,9.11
2023-03-15T17:59:08.537Z,9.02
2023-03-15T18:01:52.699Z,9.02
2023-03-15T18:04:37.504Z,8.90
2023-03-15T18:07:26.459Z,8.89
2023-03-15T18:10:12.886Z,8.87
2023-03-15T18:12:56.838Z,8.84
2023-03-15T18:15:40.649Z,8.91
2023-03-15T18:18:24.404Z,8.85
2023-03-15T18:21:13.958Z,8.84
2023-03-15T18:24:00.978Z,8.96
2023-03-15T18:26:44.695Z,8.90
2023-03-15T18:29:28.617Z,8.77
2023-03-15T18:32:12.872Z,8.47
2023-03-15T18:34:57.457Z,8.61
2023-03-15T18:37:41.396Z,8.65
2023-03-15T18:40:29.302Z,8.48
2023-03-15T18:43:16.598Z,8.31
2023-03-15T18:46:00.532Z,8.21
2023-03-15T18:48:45.576Z,8.09
2023-03-15T18:51:29.759Z,8.30
2023-03-15T18:54:13.989Z,8.35
2023-03-15T18:56:59.599Z,8.30
2023-03-15T18:59:43.359Z,8.30
2023-03-15T19:02:31.041Z,8.37
2023-03-15T19:05:16.173Z,8.55
2023-03-15T19:08:02.406Z,8.43
2023-03-15T19:10:47.570Z,8.54
2023-03-15T19:13:34.521Z,8.58
2023-03-15T19:16:18.844Z,8.61
2023-03-15T19:19:02.896Z,8.60
2023-03-15T19:21:46.785Z,8.69
2023-03-15T19:24:33.483Z,8.69
2023-03-15T19:27:18.192Z,8.70
2023-03-15T19:30:09.192Z,8.63
2023-03-15T19:32:53.210Z,8.76
2023-03-15T19:35:37.145Z,8.69
2023-03-15T19:38:21.759Z,8.58
2023-03-15T19:41:06.239Z,8.42
2023-03-15T19:43:50.188Z,8.49
2023-03-15T19:46:35.860Z,8.50
2023-03-15T19:49:20.281Z,8.36
2023-03-15T19:52:07.610Z,8.40
2023-03-15T19:54:52.843Z,8.43
2023-03-15T19:57:37.044Z,8.45
2023-03-15T20:00:24.038Z,8.42
2023-03-15T20:03:09.626Z,8.49
2023-03-15T20:05:53.592Z,8.41
2023-03-15T20:08:37.928Z,8.52
2023-03-15T20:11:26.289Z,8.54
2023-03-15T20:14:10.185Z,8.52
2023-03-15T20:16:54.025Z,8.51
2023-03-15T20:19:39.772Z,8.61
2023-03-15T20:22:23.440Z,8.51
2023-03-15T20:25:10.125Z,8.42
2023-03-15T20:28:04.323Z,8.52
2023-03-15T20:30:47.802Z,8.38
2023-03-15T20:33:32.006Z,8.39
2023-03-15T20:36:17.784Z,8.44
2023-03-15T20:39:01.892Z,8.31
2023-03-15T20:41:45.997Z,8.28
2023-03-15T20:44:32.445Z,8.40
2023-03-15T20:47:17.575Z,8.25
2023-03-15T20:50:01.839Z,8.38
2023-03-15T20:52:47.542Z,8.16
2023-03-15T20:55:32.030Z,8.03
2023-03-15T20:58:16.145Z,8.18
2023-03-15T21:01:09.003Z,8.15
2023-03-15T21:03:55.024Z,8.10
2023-03-15T21:06:39.177Z,8.07
2023-03-15T21:09:24.652Z,7.98
2023-03-15T21:12:09.234Z,7.90
2023-03-15T21:14:53.638Z,7.87
2023-03-15T21:17:37.868Z,7.73
2023-03-15T21:20:21.804Z,7.69
2023-03-15T21:23:05.962Z,7.37
2023-03-15T21:25:55.916Z,6.99
2023-03-15T21:28:40.076Z,6.93
2023-03-15T21:31:23.472Z,6.86
2023-03-15T21:34:06.924Z,6.81
2023-03-15T21:36:50.272Z,6.67
2023-03-15T21:39:34.272Z,6.53
2023-03-15T21:42:19.981Z,6.46
2023-03-15T21:45:09.193Z,6.37
2023-03-15T21:47:53.218Z,6.32
2023-03-15T21:50:37.127Z,6.12
2023-03-15T21:53:21.146Z,6.00
2023-03-15T21:56:07.711Z,5.85
2023-03-15T21:58:53.963Z,5.51
2023-03-15T22:01:38.973Z,5.32
2023-03-15T22:04:24.835Z,5.27
2023-03-15T22:07:08.620Z,5.19
2023-03-15T22:09:53.455Z,5.02
2023-03-15T22:12:37.865Z,4.87
2023-03-15T22:15:23.695Z,4.80
2023-03-15T22:18:53.084Z,4.68
2023-03-15T22:21:36.997Z,4.69
2023-03-15T22:24:22.262Z,4.71
2023-03-15T22:27:06.293Z,4.59
2023-03-15T22:29:50.670Z,4.59
2023-03-15T22:32:38.625Z,4.69
2023-03-15T22:35:23.192Z,4.55
2023-03-15T22:38:10.527Z,4.59
2023-03-15T22:41:04.484Z,4.47
2023-03-15T22:43:48.572Z,4.33
2023-03-15T22:46:34.955Z,4.45
2023-03-15T22:49:20.512Z,4.27
2023-03-15T22:52:04.161Z,4.21
2023-03-15T22:54:48.822Z,4.06
2023-03-15T22:57:32.699Z,4.20
2023-03-15T23:00:19.979Z,4.17
2023-03-15T23:03:04.481Z,4.13
2023-03-15T23:05:49.994Z,4.01
2023-03-15T23:08:34.200Z,3.96
2023-03-15T23:11:18.168Z,4.01
2023-03-15T23:14:02.149Z,4.02
2023-03-15T23:16:46.212Z,3.94
2023-03-15T23:19:30.267Z,3.95
2023-03-15T23:22:16.161Z,3.85
2023-03-15T23:25:00.144Z,3.87
2023-03-15T23:27:44.537Z,3.73
2023-03-15T23:30:35.485Z,3.83
2023-03-15T23:33:20.160Z,3.70
2023-03-15T23:36:04.771Z,3.82
2023-03-15T23:38:50.846Z,3.77
2023-03-15T23:41:36.105Z,3.77
2023-03-15T23:44:19.862Z,3.75
2023-03-15T23:47:06.082Z,3.68
2023-03-15T23:49:50.526Z,3.72
2023-03-15T23:52:34.533Z,3.73
2023-03-15T23:55:20.749Z,3.71
2023-03-15T23:58:07.211Z,3.67
